createdAt,value
2022-12-15T00:04:10.963Z,6.00
2022-12-15T00:08:32.024Z,5.53
2022-12-15T00:12:53.550Z,5.57
2022-12-15T00:17:15.062Z,4.25
2022-12-15T00:21:36.378Z,4.65
2022-12-15T00:25:57.594Z,4.30
2022-12-15T00:30:18.626Z,3.92
2022-12-15T00:34:39.794Z,4.60
2022-12-15T00:38:45.140Z,4.90
2022-12-15T00:42:49.526Z,6.47
2022-12-15T00:46:55.436Z,6.78
2022-12-15T00:50:58.207Z,8.20
2022-12-15T00:55:19.299Z,7.93
2022-12-15T00:59:40.862Z,7.70
2022-12-15T01:04:01.987Z,6.20
2022-12-15T01:08:23.193Z,6.57
2022-12-15T01:12:44.374Z,6.80
2022-12-15T01:17:05.548Z,5.32
2022-12-15T01:21:13.942Z,4.30
2022-12-15T01:25:18.793Z,4.45
2022-12-15T01:29:21.570Z,5.80
2022-12-15T01:33:24.321Z,5.05
2022-12-15T01:37:27.079Z,5.05
2022-12-15T01:41:30.071Z,5.00
2022-12-15T01:45:33.247Z,3.88
2022-12-15T01:49:35.951Z,3.65
2022-12-15T01:53:45.472Z,3.60
2022-12-15T01:57:58.813Z,3.03
2022-12-15T02:02:02.875Z,3.78
2022-12-15T02:06:06.970Z,3.45
2022-12-15T02:10:10.901Z,4.53
2022-12-15T02:14:25.909Z,4.78
2022-12-15T02:18:37.760Z,5.22
2022-12-15T02:23:05.668Z,5.18
2022-12-15T02:27:35.671Z,4.93
2022-12-15T02:31:52.249Z,4.90
2022-12-15T02:36:01.814Z,5.53
2022-12-15T02:40:07.959Z,5.55
2022-12-15T02:44:25.802Z,4.77
2022-12-15T02:48:57.121Z,5.75
2022-12-15T02:53:31.649Z,4.55
2022-12-15T02:57:46.810Z,5.03
2022-12-15T03:02:00.224Z,4.70
2022-12-15T03:06:05.355Z,8.55
2022-12-15T03:10:09.546Z,11.77
2022-12-15T03:14:12.507Z,13.07
2022-12-15T03:18:15.726Z,13.55
2022-12-15T03:22:18.493Z,16.10
2022-12-15T03:26:21.803Z,15.23
2022-12-15T03:30:24.681Z,16.90
2022-12-15T03:34:27.476Z,16.38
2022-12-15T03:38:30.373Z,15.10
2022-12-15T03:42:48.554Z,14.57
2022-12-15T03:46:51.414Z,12.70
2022-12-15T03:50:55.420Z,13.75
2022-12-15T03:54:58.768Z,13.13
2022-12-15T03:59:01.635Z,13.40
2022-12-15T04:03:04.556Z,14.35
2022-12-15T04:07:07.529Z,11.45
2022-12-15T04:11:10.228Z,13.15
2022-12-15T04:15:13.103Z,11.23
2022-12-15T04:19:34.276Z,12.82
2022-12-15T04:23:37.011Z,13.48
2022-12-15T04:28:01.547Z,16.00
2022-12-15T04:32:23.078Z,14.07
2022-12-15T04:36:45.051Z,13.23
2022-12-15T04:41:06.158Z,11.93
2022-12-15T04:45:28.463Z,13.32
2022-12-15T04:49:49.758Z,11.50
2022-12-15T04:54:11.247Z,13.02
2022-12-15T04:58:32.430Z,12.05
2022-12-15T05:02:53.613Z,11.35
2022-12-15T05:07:14.655Z,13.05
2022-12-15T05:11:35.828Z,11.55
2022-12-15T05:15:57.165Z,12.77
2022-12-15T05:20:18.465Z,12.32
2022-12-15T05:24:39.833Z,14.60
2022-12-15T05:29:00.961Z,12.00
2022-12-15T05:33:05.153Z,12.85
2022-12-15T05:37:08.319Z,11.57
2022-12-15T05:41:11.333Z,12.15
2022-12-15T05:45:14.183Z,13.40
2022-12-15T05:49:18.699Z,13.23
2022-12-15T05:53:21.482Z,12.18
2022-12-15T05:57:24.422Z,13.07
2022-12-15T06:01:27.994Z,14.70
2022-12-15T06:05:30.803Z,13.52
2022-12-15T06:09:33.586Z,12.68
2022-12-15T06:13:36.302Z,12.35
2022-12-15T06:17:39.206Z,10.77
2022-12-15T06:21:42.363Z,11.55
2022-12-15T06:25:45.031Z,12.10
2022-12-15T06:29:48.378Z,11.32
2022-12-15T06:33:59.244Z,11.80
2022-12-15T06:38:03.998Z,12.30
2022-12-15T06:42:06.942Z,11.13
2022-12-15T06:46:10.445Z,11.63
2022-12-15T06:50:13.390Z,13.07
2022-12-15T06:54:16.124Z,13.27
2022-12-15T06:58:18.889Z,13.00
2022-12-15T07:02:28.492Z,13.02
2022-12-15T07:06:38.997Z,14.80
2022-12-15T07:10:44.114Z,14.02
2022-12-15T07:14:53.038Z,12.85
2022-12-15T07:18:56.274Z,13.82
2022-12-15T07:22:59.007Z,13.43
2022-12-15T07:27:01.849Z,13.90
2022-12-15T07:31:07.416Z,13.80
2022-12-15T07:35:13.596Z,13.48
2022-12-15T07:39:16.919Z,12.75
2022-12-15T07:43:21.305Z,12.60
2022-12-15T07:47:24.902Z,14.18
2022-12-15T07:51:27.882Z,13.38
2022-12-15T07:55:57.340Z,13.07
2022-12-15T07:59:53.675Z,13.68
2022-12-15T08:03:56.797Z,13.38
2022-12-15T08:07:59.792Z,14.27
2022-12-15T08:12:02.851Z,13.20
2022-12-15T08:16:05.815Z,12.90
2022-12-15T08:20:10.210Z,13.45
2022-12-15T08:24:14.424Z,13.48
2022-12-15T08:28:17.284Z,12.68
2022-12-15T08:32:20.330Z,13.25
2022-12-15T08:36:23.354Z,13.88
2022-12-15T08:40:26.158Z,13.25
2022-12-15T08:44:28.821Z,13.70
2022-12-15T08:48:32.071Z,12.50
2022-12-15T08:52:35.288Z,12.40
2022-12-15T08:56:38.070Z,13.40
2022-12-15T09:00:40.891Z,13.27
2022-12-15T09:04:45.540Z,13.60
2022-12-15T09:08:50.396Z,12.02
2022-12-15T09:12:53.458Z,11.80
2022-12-15T09:16:56.366Z,11.90
2022-12-15T09:21:03.857Z,13.43
2022-12-15T09:25:07.460Z,13.13
2022-12-15T09:29:13.426Z,13.35
2022-12-15T09:33:16.269Z,12.13
2022-12-15T09:37:20.078Z,13.50
2022-12-15T13:46:20.697Z,1.60
2022-12-15T14:04:07.777Z,2.17
2022-12-15T14:08:18.445Z,2.55
2022-12-15T14:13:15.481Z,1.70
2022-12-15T14:21:34.452Z,1.88
2022-12-15T14:26:22.812Z,1.90
2022-12-15T15:42:32.495Z,2.00
2022-12-15T16:16:54.912Z,2.88
2022-12-15T16:26:37.504Z,3.03
2022-12-15T16:52:07.599Z,3.00
2022-12-15T16:56:42.541Z,2.70
2022-12-15T17:01:36.829Z,5.25
2022-12-15T17:05:58.515Z,3.90
2022-12-15T18:09:44.868Z,4.93
2022-12-15T18:18:22.126Z,2.40
2022-12-15T18:31:58.478Z,2.75
2022-12-15T18:36:26.859Z,2.90
2022-12-15T18:41:18.978Z,2.22
2022-12-15T18:51:46.776Z,2.10
2022-12-15T19:02:46.124Z,2.22
2022-12-15T19:13:27.789Z,1.73
2022-12-15T19:31:08.957Z,1.80
2022-12-15T19:35:44.244Z,2.05
